sensor_id;sensor_type;location;lat;lon;timestamp;temperature;humidity
6954;DHT22;3516;47.980;8.808;2022-09-02T06:01:38;23.40;52.60
6954;DHT22;3516;47.980;8.808;2022-09-02T06:04:05;23.40;52.50
6954;DHT22;3516;47.980;8.808;2022-09-02T06:06:32;23.40;52.50
6954;DHT22;3516;47.980;8.808;2022-09-02T06:09:00;23.40;52.40
6954;DHT22;3516;47.980;8.808;2022-09-02T06:11:28;23.40;52.40
6954;DHT22;3516;47.980;8.808;2022-09-02T06:13:55;23.40;52.40
6954;DHT22;3516;47.980;8.808;2022-09-02T06:16:22;23.40;52.50
6954;DHT22;3516;47.980;8.808;2022-09-02T06:18:50;23.40;52.50
6954;DHT22;3516;47.980;8.808;2022-09-02T06:21:17;23.40;52.60
6954;DHT22;3516;47.980;8.808;2022-09-02T06:23:45;23.40;52.60
6954;DHT22;3516;47.980;8.808;2022-09-02T06:26:12;23.50;52.80
6954;DHT22;3516;47.980;8.808;2022-09-02T06:28:39;23.50;52.80
6954;DHT22;3516;47.980;8.808;2022-09-02T06:31:06;23.50;52.80
6954;DHT22;3516;47.980;8.808;2022-09-02T06:33:33;23.50;52.80
6954;DHT22;3516;47.980;8.808;2022-09-02T06:36:04;23.50;52.80
6954;DHT22;3516;47.980;8.808;2022-09-02T06:38:31;23.50;52.80
6954;DHT22;3516;47.980;8.808;2022-09-02T06:40:57;23.50;52.80
6954;DHT22;3516;47.980;8.808;2022-09-02T06:43:24;23.40;52.70
6954;DHT22;3516;47.980;8.808;2022-09-02T06:45:51;23.40;52.60
6954;DHT22;3516;47.980;8.808;2022-09-02T06:48:17;23.40;52.60
6954;DHT22;3516;47.980;8.808;2022-09-02T06:50:45;23.40;52.60
6954;DHT22;3516;47.980;8.808;2022-09-02T06:53:13;23.40;52.50
6954;DHT22;3516;47.980;8.808;2022-09-02T06:55:42;23.40;52.40
6954;DHT22;3516;47.980;8.808;2022-09-02T06:58:09;23.40;52.30
6954;DHT22;3516;47.980;8.808;2022-09-02T07:00:36;23.40;52.20
6954;DHT22;3516;47.980;8.808;2022-09-02T07:03:04;23.40;52.10
6954;DHT22;3516;47.980;8.808;2022-09-02T07:05:56;23.40;52.10
6954;DHT22;3516;47.980;8.808;2022-09-02T07:11:27;23.40;51.80
6954;DHT22;3516;47.980;8.808;2022-09-02T07:13:54;23.30;51.60
6954;DHT22;3516;47.980;8.808;2022-09-02T07:16:24;23.30;51.60
6954;DHT22;3516;47.980;8.808;2022-09-02T07:18:51;23.40;51.50
6954;DHT22;3516;47.980;8.808;2022-09-02T07:21:17;23.40;51.40
6954;DHT22;3516;47.980;8.808;2022-09-02T07:23:44;23.30;51.30
6954;DHT22;3516;47.980;8.808;2022-09-02T07:26:11;23.40;51.30
6954;DHT22;3516;47.980;8.808;2022-09-02T07:28:39;23.30;51.30
6954;DHT22;3516;47.980;8.808;2022-09-02T07:31:07;23.40;51.30
6954;DHT22;3516;47.980;8.808;2022-09-02T07:33:33;23.40;51.30
6954;DHT22;3516;47.980;8.808;2022-09-02T07:36:01;23.40;51.20
6954;DHT22;3516;47.980;8.808;2022-09-02T07:38:29;23.40;51.20
6954;DHT22;3516;47.980;8.808;2022-09-02T07:40:56;23.40;51.20
6954;DHT22;3516;47.980;8.808;2022-09-02T07:43:24;23.40;51.20
6954;DHT22;3516;47.980;8.808;2022-09-02T07:45:53;23.40;51.20
6954;DHT22;3516;47.980;8.808;2022-09-02T07:48:20;23.40;51.10
6954;DHT22;3516;47.980;8.808;2022-09-02T17:00:06;23.70;53.90
6954;DHT22;3516;47.980;8.808;2022-09-02T17:02:33;23.60;53.90
6954;DHT22;3516;47.980;8.808;2022-09-02T17:04:59;23.70;54.00
6954;DHT22;3516;47.980;8.808;2022-09-02T17:07:26;23.70;54.10
6954;DHT22;3516;47.980;8.808;2022-09-02T17:09:53;23.70;54.30
6954;DHT22;3516;47.980;8.808;2022-09-02T17:12:19;23.70;54.40
6954;DHT22;3516;47.980;8.808;2022-09-02T17:14:46;23.70;54.50
6954;DHT22;3516;47.980;8.808;2022-09-02T17:17:14;23.70;54.70
6954;DHT22;3516;47.980;8.808;2022-09-02T17:19:41;23.70;55.00
6954;DHT22;3516;47.980;8.808;2022-09-02T17:22:08;23.70;55.00
6954;DHT22;3516;47.980;8.808;2022-09-02T17:24:34;23.70;55.00
6954;DHT22;3516;47.980;8.808;2022-09-02T17:27:03;23.70;55.00
6954;DHT22;3516;47.980;8.808;2022-09-02T17:29:30;23.70;55.00
6954;DHT22;3516;47.980;8.808;2022-09-02T17:31:56;23.70;55.00
6954;DHT22;3516;47.980;8.808;2022-09-02T17:34:24;23.70;55.10
6954;DHT22;3516;47.980;8.808;2022-09-02T17:36:51;23.70;55.30
6954;DHT22;3516;47.980;8.808;2022-09-02T17:39:18;23.70;55.40
6954;DHT22;3516;47.980;8.808;2022-09-02T17:41:46;23.70;55.50
6954;DHT22;3516;47.980;8.808;2022-09-02T17:44:22;23.70;55.60
6954;DHT22;3516;47.980;8.808;2022-09-02T17:46:50;23.70;55.70
6954;DHT22;3516;47.980;8.808;2022-09-02T17:49:17;23.70;55.80
6954;DHT22;3516;47.980;8.808;2022-09-02T17:51:46;23.70;55.90
6954;DHT22;3516;47.980;8.808;2022-09-02T17:54:13;23.70;56.50
6954;DHT22;3516;47.980;8.808;2022-09-02T17:57:01;23.70;56.00
6954;DHT22;3516;47.980;8.808;2022-09-02T17:59:31;23.70;56.20
6954;DHT22;3516;47.980;8.808;2022-09-02T18:04:55;23.70;56.40
6954;DHT22;3516;47.980;8.808;2022-09-02T18:07:27;23.70;56.60
6954;DHT22;3516;47.980;8.808;2022-09-02T18:09:57;23.70;56.80
6954;DHT22;3516;47.980;8.808;2022-09-02T18:12:24;23.70;56.90
6954;DHT22;3516;47.980;8.808;2022-09-02T18:14:54;23.70;57.00
6954;DHT22;3516;47.980;8.808;2022-09-02T18:17:24;23.70;57.20
6954;DHT22;3516;47.980;8.808;2022-09-02T18:19:56;23.70;57.30
6954;DHT22;3516;47.980;8.808;2022-09-02T18:22:29;23.70;57.50
6954;DHT22;3516;47.980;8.808;2022-09-02T18:25:02;23.70;57.60
6954;DHT22;3516;47.980;8.808;2022-09-02T18:27:37;23.70;58.00
6954;DHT22;3516;47.980;8.808;2022-09-02T18:30:06;23.70;58.00
6954;DHT22;3516;47.980;8.808;2022-09-02T18:35:25;23.70;58.40
6954;DHT22;3516;47.980;8.808;2022-09-02T18:38:01;23.70;58.50
6954;DHT22;3516;47.980;8.808;2022-09-02T18:40:33;23.70;58.70
6954;DHT22;3516;47.980;8.808;2022-09-02T18:43:05;23.70;58.90
6954;DHT22;3516;47.980;8.808;2022-09-02T18:45:34;23.70;59.00
6954;DHT22;3516;47.980;8.808;2022-09-02T18:48:04;23.70;59.20
6954;DHT22;3516;47.980;8.808;2022-09-02T18:50:33;23.70;60.00
6954;DHT22;3516;47.980;8.808;2022-09-02T18:53:05;23.70;59.70
6954;DHT22;3516;47.980;8.808;2022-09-02T18:55:33;23.70;59.70
6954;DHT22;3516;47.980;8.808;2022-09-02T18:58:01;23.70;59.70
6954;DHT22;3516;47.980;8.808;2022-09-02T19:00:32;23.70;59.70
6954;DHT22;3516;47.980;8.808;2022-09-02T19:03:02;23.70;59.80
6954;DHT22;3516;47.980;8.808;2022-09-02T19:05:32;23.70;60.20
6954;DHT22;3516;47.980;8.808;2022-09-02T19:08:00;23.70;60.40
6954;DHT22;3516;47.980;8.808;2022-09-02T19:10:53;23.70;60.70
6954;DHT22;3516;47.980;8.808;2022-09-02T19:13:21;23.70;60.90
6954;DHT22;3516;47.980;8.808;2022-09-02T19:15:48;23.70;61.20
6954;DHT22;3516;47.980;8.808;2022-09-02T19:18:15;23.70;61.40
6954;DHT22;3516;47.980;8.808;2022-09-02T19:20:41;23.70;61.70
6954;DHT22;3516;47.980;8.808;2022-09-02T19:23:08;23.70;61.80
6954;DHT22;3516;47.980;8.808;2022-09-02T19:25:36;23.70;62.00
6954;DHT22;3516;47.980;8.808;2022-09-02T19:28:04;23.70;62.20
6954;DHT22;3516;47.980;8.808;2022-09-02T19:30:31;23.60;62.30
6954;DHT22;3516;47.980;8.808;2022-09-02T19:33:01;23.60;62.50
6954;DHT22;3516;47.980;8.808;2022-09-02T19:35:29;23.60;62.70
6954;DHT22;3516;47.980;8.808;2022-09-02T19:37:56;23.60;62.90
6954;DHT22;3516;47.980;8.808;2022-09-02T19:40:24;23.60;63.00
6954;DHT22;3516;47.980;8.808;2022-09-02T19:42:52;23.60;63.30
6954;DHT22;3516;47.980;8.808;2022-09-02T19:45:21;23.60;63.40
6954;DHT22;3516;47.980;8.808;2022-09-02T19:47:47;23.60;63.60
6954;DHT22;3516;47.980;8.808;2022-09-02T19:50:14;23.60;63.80
6954;DHT22;3516;47.980;8.808;2022-09-02T19:52:42;23.70;64.00
6954;DHT22;3516;47.980;8.808;2022-09-02T19:55:09;23.60;64.10
6954;DHT22;3516;47.980;8.808;2022-09-02T19:57:36;23.60;64.30
6954;DHT22;3516;47.980;8.808;2022-09-02T20:00:04;23.60;64.50
6954;DHT22;3516;47.980;8.808;2022-09-02T20:02:32;23.60;64.70
6954;DHT22;3516;47.980;8.808;2022-09-02T20:04:59;23.60;64.80
6954;DHT22;3516;47.980;8.808;2022-09-02T20:07:26;23.60;65.00
6954;DHT22;3516;47.980;8.808;2022-09-02T20:09:52;23.60;65.20
6954;DHT22;3516;47.980;8.808;2022-09-02T20:12:19;23.60;65.50
6954;DHT22;3516;47.980;8.808;2022-09-02T20:14:46;23.60;65.60
6954;DHT22;3516;47.980;8.808;2022-09-02T20:17:15;23.60;65.70
6954;DHT22;3516;47.980;8.808;2022-09-02T20:19:45;23.60;65.60
6954;DHT22;3516;47.980;8.808;2022-09-02T20:22:12;23.60;65.60
6954;DHT22;3516;47.980;8.808;2022-09-02T20:24:39;23.60;65.70
6954;DHT22;3516;47.980;8.808;2022-09-02T20:27:09;23.60;66.00
6954;DHT22;3516;47.980;8.808;2022-09-02T20:29:44;23.60;66.20
6954;DHT22;3516;47.980;8.808;2022-09-02T20:32:16;23.60;67.10
6954;DHT22;3516;47.980;8.808;2022-09-02T20:34:50;23.60;66.50
6954;DHT22;3516;47.980;8.808;2022-09-02T20:37:24;23.60;66.70
6954;DHT22;3516;47.980;8.808;2022-09-02T20:42:43;23.60;66.90
6954;DHT22;3516;47.980;8.808;2022-09-02T20:45:12;23.60;67.10
6954;DHT22;3516;47.980;8.808;2022-09-02T20:47:44;23.60;67.20
6954;DHT22;3516;47.980;8.808;2022-09-02T20:53:00;23.50;67.20
6954;DHT22;3516;47.980;8.808;2022-09-02T20:55:31;23.50;67.40
6954;DHT22;3516;47.980;8.808;2022-09-02T20:58:01;23.50;67.50
6954;DHT22;3516;47.980;8.808;2022-09-02T21:00:43;23.50;67.60
6954;DHT22;3516;47.980;8.808;2022-09-02T21:03:13;23.50;67.60
6954;DHT22;3516;47.980;8.808;2022-09-02T21:05:43;23.50;67.70
6954;DHT22;3516;47.980;8.808;2022-09-02T21:08:16;23.50;67.80
6954;DHT22;3516;47.980;8.808;2022-09-02T21:10:46;23.50;67.80
6954;DHT22;3516;47.980;8.808;2022-09-02T21:13:18;23.50;67.90
6954;DHT22;3516;47.980;8.808;2022-09-02T21:15:46;23.50;67.90
6954;DHT22;3516;47.980;8.808;2022-09-02T21:18:15;23.50;68.00
6954;DHT22;3516;47.980;8.808;2022-09-02T21:20:45;23.50;68.00
6954;DHT22;3516;47.980;8.808;2022-09-02T21:23:16;23.50;68.10
6954;DHT22;3516;47.980;8.808;2022-09-02T21:25:47;23.50;68.10
6954;DHT22;3516;47.980;8.808;2022-09-02T21:28:17;23.50;68.20
6954;DHT22;3516;47.980;8.808;2022-09-02T21:30:44;23.50;68.20
6954;DHT22;3516;47.980;8.808;2022-09-02T21:33:13;23.50;68.20
6954;DHT22;3516;47.980;8.808;2022-09-02T21:35:41;23.40;68.20
6954;DHT22;3516;47.980;8.808;2022-09-02T21:38:09;23.40;68.20
6954;DHT22;3516;47.980;8.808;2022-09-02T21:40:41;23.40;68.20
6954;DHT22;3516;47.980;8.808;2022-09-02T21:43:13;23.40;68.20
6954;DHT22;3516;47.980;8.808;2022-09-02T21:45:43;23.40;68.20
6954;DHT22;3516;47.980;8.808;2022-09-02T21:48:15;23.40;68.20
6954;DHT22;3516;47.980;8.808;2022-09-02T21:50:47;23.40;68.20
6954;DHT22;3516;47.980;8.808;2022-09-02T21:53:18;23.40;68.30
6954;DHT22;3516;47.980;8.808;2022-09-02T21:55:51;23.40;68.30
6954;DHT22;3516;47.980;8.808;2022-09-02T21:58:25;23.40;68.30
6954;DHT22;3516;47.980;8.808;2022-09-02T22:00:56;23.40;68.30
6954;DHT22;3516;47.980;8.808;2022-09-02T22:03:29;23.40;69.10
6954;DHT22;3516;47.980;8.808;2022-09-02T22:06:03;23.40;68.40
6954;DHT22;3516;47.980;8.808;2022-09-02T22:08:33;23.40;68.30
6954;DHT22;3516;47.980;8.808;2022-09-02T22:11:07;23.40;68.40
6954;DHT22;3516;47.980;8.808;2022-09-02T22:13:34;23.40;68.40
6954;DHT22;3516;47.980;8.808;2022-09-02T22:16:08;23.40;68.40
6954;DHT22;3516;47.980;8.808;2022-09-02T22:18:38;23.40;68.50
6954;DHT22;3516;47.980;8.808;2022-09-02T22:21:11;23.40;68.40
6954;DHT22;3516;47.980;8.808;2022-09-02T22:23:41;23.40;68.40
6954;DHT22;3516;47.980;8.808;2022-09-02T22:26:15;23.40;68.50
6954;DHT22;3516;47.980;8.808;2022-09-02T22:28:45;23.40;68.50
6954;DHT22;3516;47.980;8.808;2022-09-02T22:31:14;23.40;68.40
6954;DHT22;3516;47.980;8.808;2022-09-02T22:33:43;23.40;68.50
6954;DHT22;3516;47.980;8.808;2022-09-02T22:36:19;23.30;68.40
6954;DHT22;3516;47.980;8.808;2022-09-02T22:38:49;23.30;68.40
6954;DHT22;3516;47.980;8.808;2022-09-02T22:41:18;23.40;68.50
6954;DHT22;3516;47.980;8.808;2022-09-02T22:43:50;23.30;68.40
6954;DHT22;3516;47.980;8.808;2022-09-02T22:46:19;23.30;68.40
6954;DHT22;3516;47.980;8.808;2022-09-02T22:49:06;23.30;68.40
6954;DHT22;3516;47.980;8.808;2022-09-02T22:51:54;23.30;68.40
6954;DHT22;3516;47.980;8.808;2022-09-02T22:54:41;23.30;68.40
6954;DHT22;3516;47.980;8.808;2022-09-02T22:57:11;23.30;68.40
6954;DHT22;3516;47.980;8.808;2022-09-02T22:59:40;23.30;68.40
6954;DHT22;3516;47.980;8.808;2022-09-02T23:02:15;23.30;68.50
6954;DHT22;3516;47.980;8.808;2022-09-02T23:04:49;23.30;68.50
6954;DHT22;3516;47.980;8.808;2022-09-02T23:07:19;23.30;68.50
6954;DHT22;3516;47.980;8.808;2022-09-02T23:09:45;23.30;68.40
6954;DHT22;3516;47.980;8.808;2022-09-02T23:12:17;23.30;69.20
6954;DHT22;3516;47.980;8.808;2022-09-02T23:14:56;23.30;68.40
6954;DHT22;3516;47.980;8.808;2022-09-02T23:17:34;23.30;68.40
6954;DHT22;3516;47.980;8.808;2022-09-02T23:20:04;23.30;68.40
6954;DHT22;3516;47.980;8.808;2022-09-02T23:22:35;23.30;68.40
